sensor_id;sensor_type;location;lat;lon;timestamp;temperature;humidity
52513;DHT22;38422;53.172;6.974;2022-09-14T00:00:47;16.60;99.90
52513;DHT22;38422;53.172;6.974;2022-09-14T00:03:13;16.50;99.90
52513;DHT22;38422;53.172;6.974;2022-09-14T00:05:39;16.50;99.90
52513;DHT22;38422;53.172;6.974;2022-09-14T00:08:05;16.50;99.90
52513;DHT22;38422;53.172;6.974;2022-09-14T00:10:31;16.50;99.90
52513;DHT22;38422;53.172;6.974;2022-09-14T00:12:56;16.50;99.90
52513;DHT22;38422;53.172;6.974;2022-09-14T00:15:22;16.40;99.90
52513;DHT22;38422;53.172;6.974;2022-09-14T00:17:48;16.30;99.90
52513;DHT22;38422;53.172;6.974;2022-09-14T00:20:13;16.30;99.90
52513;DHT22;38422;53.172;6.974;2022-09-14T00:22:39;16.30;99.90
52513;DHT22;38422;53.172;6.974;2022-09-14T00:25:05;16.30;99.90
52513;DHT22;38422;53.172;6.974;2022-09-14T00:27:31;16.40;99.90
52513;DHT22;38422;53.172;6.974;2022-09-14T00:29:57;16.40;99.90
52513;DHT22;38422;53.172;6.974;2022-09-14T00:32:22;16.40;99.90
52513;DHT22;38422;53.172;6.974;2022-09-14T00:34:48;16.40;99.90
52513;DHT22;38422;53.172;6.974;2022-09-14T00:37:14;16.40;99.90
52513;DHT22;38422;53.172;6.974;2022-09-14T00:39:39;16.40;99.90
52513;DHT22;38422;53.172;6.974;2022-09-14T00:42:05;16.40;99.90
52513;DHT22;38422;53.172;6.974;2022-09-14T00:46:59;16.40;99.90
52513;DHT22;38422;53.172;6.974;2022-09-14T00:49:39;16.50;99.90
52513;DHT22;38422;53.172;6.974;2022-09-14T00:52:44;16.40;99.90
52513;DHT22;38422;53.172;6.974;2022-09-14T00:55:08;16.40;99.90
52513;DHT22;38422;53.172;6.974;2022-09-14T00:57:46;16.40;99.90
52513;DHT22;38422;53.172;6.974;2022-09-14T01:00:15;16.40;99.90
52513;DHT22;38422;53.172;6.974;2022-09-14T01:02:42;16.30;99.90
52513;DHT22;38422;53.172;6.974;2022-09-14T01:05:09;16.40;99.90
52513;DHT22;38422;53.172;6.974;2022-09-14T01:07:53;16.30;99.90
52513;DHT22;38422;53.172;6.974;2022-09-14T01:15:53;16.40;99.90
52513;DHT22;38422;53.172;6.974;2022-09-14T01:21:04;16.30;99.90
52513;DHT22;38422;53.172;6.974;2022-09-14T01:24:05;16.30;99.90
52513;DHT22;38422;53.172;6.974;2022-09-14T01:29:41;16.30;99.90
52513;DHT22;38422;53.172;6.974;2022-09-14T01:32:29;16.30;99.90
52513;DHT22;38422;53.172;6.974;2022-09-14T01:35:16;16.20;99.90
52513;DHT22;38422;53.172;6.974;2022-09-14T01:37:54;16.20;99.90
52513;DHT22;38422;53.172;6.974;2022-09-14T01:40:30;16.30;99.90
52513;DHT22;38422;53.172;6.974;2022-09-14T01:43:15;16.30;99.90
52513;DHT22;38422;53.172;6.974;2022-09-14T01:45:46;16.20;99.90
52513;DHT22;38422;53.172;6.974;2022-09-14T01:48:14;16.30;99.90
52513;DHT22;38422;53.172;6.974;2022-09-14T01:50:49;16.30;99.90
52513;DHT22;38422;53.172;6.974;2022-09-14T01:56:07;16.30;99.90
52513;DHT22;38422;53.172;6.974;2022-09-14T01:58:36;16.30;99.90
52513;DHT22;38422;53.172;6.974;2022-09-14T02:01:05;16.30;99.90
52513;DHT22;38422;53.172;6.974;2022-09-14T02:03:56;16.20;99.90
52513;DHT22;38422;53.172;6.974;2022-09-14T02:06:31;16.20;99.90
52513;DHT22;38422;53.172;6.974;2022-09-14T02:09:00;16.20;99.90
52513;DHT22;38422;53.172;6.974;2022-09-14T02:11:26;16.10;99.90
52513;DHT22;38422;53.172;6.974;2022-09-14T02:13:53;16.10;99.90
52513;DHT22;38422;53.172;6.974;2022-09-14T02:16:19;16.10;99.90
52513;DHT22;38422;53.172;6.974;2022-09-14T02:18:46;16.00;99.90
52513;DHT22;38422;53.172;6.974;2022-09-14T02:21:17;16.00;99.90
52513;DHT22;38422;53.172;6.974;2022-09-14T02:23:45;16.00;99.90
52513;DHT22;38422;53.172;6.974;2022-09-14T02:26:12;15.90;99.90
52513;DHT22;38422;53.172;6.974;2022-09-14T02:28:38;15.90;99.90
52513;DHT22;38422;53.172;6.974;2022-09-14T02:36:51;15.70;99.90
52513;DHT22;38422;53.172;6.974;2022-09-14T02:41:59;15.50;99.90
52513;DHT22;38422;53.172;6.974;2022-09-14T02:50:00;15.40;99.90
52513;DHT22;38422;53.172;6.974;2022-09-14T02:52:33;15.30;99.90
52513;DHT22;38422;53.172;6.974;2022-09-14T02:55:08;15.40;99.90
52513;DHT22;38422;53.172;6.974;2022-09-14T02:58:10;15.40;99.90
52513;DHT22;38422;53.172;6.974;2022-09-14T03:00:39;15.40;99.90
52513;DHT22;38422;53.172;6.974;2022-09-14T03:03:06;15.40;99.90
52513;DHT22;38422;53.172;6.974;2022-09-14T03:05:33;15.40;99.90
52513;DHT22;38422;53.172;6.974;2022-09-14T03:07:59;15.40;99.90
52513;DHT22;38422;53.172;6.974;2022-09-14T03:10:26;15.40;99.90
52513;DHT22;38422;53.172;6.974;2022-09-14T03:12:51;15.40;99.90
52513;DHT22;38422;53.172;6.974;2022-09-14T03:15:17;15.50;99.90
52513;DHT22;38422;53.172;6.974;2022-09-14T03:17:47;15.40;99.90
52513;DHT22;38422;53.172;6.974;2022-09-14T03:20:15;15.40;99.90
52513;DHT22;38422;53.172;6.974;2022-09-14T03:22:41;15.40;99.90
52513;DHT22;38422;53.172;6.974;2022-09-14T03:25:07;15.30;99.90
52513;DHT22;38422;53.172;6.974;2022-09-14T03:27:33;15.30;99.90
52513;DHT22;38422;53.172;6.974;2022-09-14T03:29:58;15.30;99.90
52513;DHT22;38422;53.172;6.974;2022-09-14T03:32:24;15.30;99.90
52513;DHT22;38422;53.172;6.974;2022-09-14T03:34:50;15.40;99.90
52513;DHT22;38422;53.172;6.974;2022-09-14T03:37:15;15.30;99.90
52513;DHT22;38422;53.172;6.974;2022-09-14T03:39:41;15.30;99.90
52513;DHT22;38422;53.172;6.974;2022-09-14T03:42:07;15.30;99.90
52513;DHT22;38422;53.172;6.974;2022-09-14T03:44:32;15.40;99.90
52513;DHT22;38422;53.172;6.974;2022-09-14T03:46:58;15.40;99.90
52513;DHT22;38422;53.172;6.974;2022-09-14T03:49:24;15.30;99.90
52513;DHT22;38422;53.172;6.974;2022-09-14T03:51:49;15.30;99.90
52513;DHT22;38422;53.172;6.974;2022-09-14T03:54:15;15.20;99.90
52513;DHT22;38422;53.172;6.974;2022-09-14T03:56:40;15.20;99.90
52513;DHT22;38422;53.172;6.974;2022-09-14T03:59:09;15.30;99.90
52513;DHT22;38422;53.172;6.974;2022-09-14T04:01:35;15.30;99.90
52513;DHT22;38422;53.172;6.974;2022-09-14T04:04:02;15.30;99.90
52513;DHT22;38422;53.172;6.974;2022-09-14T04:06:28;15.30;99.90
52513;DHT22;38422;53.172;6.974;2022-09-14T04:08:54;15.30;99.90
52513;DHT22;38422;53.172;6.974;2022-09-14T04:11:23;15.30;99.90
52513;DHT22;38422;53.172;6.974;2022-09-14T04:13:50;15.40;99.90
52513;DHT22;38422;53.172;6.974;2022-09-14T04:16:17;15.40;99.90
52513;DHT22;38422;53.172;6.974;2022-09-14T04:18:43;15.40;99.90
52513;DHT22;38422;53.172;6.974;2022-09-14T04:21:14;15.40;99.90
52513;DHT22;38422;53.172;6.974;2022-09-14T04:23:40;15.40;99.90
52513;DHT22;38422;53.172;6.974;2022-09-14T04:26:10;15.40;99.90
52513;DHT22;38422;53.172;6.974;2022-09-14T04:28:37;15.40;99.90
52513;DHT22;38422;53.172;6.974;2022-09-14T04:31:02;15.30;99.90
52513;DHT22;38422;53.172;6.974;2022-09-14T04:33:30;15.40;99.90
52513;DHT22;38422;53.172;6.974;2022-09-14T04:36:02;15.40;99.90
52513;DHT22;38422;53.172;6.974;2022-09-14T04:38:29;15.40;99.90
52513;DHT22;38422;53.172;6.974;2022-09-14T04:40:55;15.30;99.90
52513;DHT22;38422;53.172;6.974;2022-09-14T04:43:21;15.40;99.90
52513;DHT22;38422;53.172;6.974;2022-09-14T04:45:46;15.40;99.90
52513;DHT22;38422;53.172;6.974;2022-09-14T04:48:12;15.40;99.90
52513;DHT22;38422;53.172;6.974;2022-09-14T04:50:38;15.50;99.90
52513;DHT22;38422;53.172;6.974;2022-09-14T04:53:03;15.40;99.90
52513;DHT22;38422;53.172;6.974;2022-09-14T04:55:29;15.50;99.90
52513;DHT22;38422;53.172;6.974;2022-09-14T04:57:55;15.50;99.90
52513;DHT22;38422;53.172;6.974;2022-09-14T05:00:20;15.50;99.90
52513;DHT22;38422;53.172;6.974;2022-09-14T05:02:46;15.50;99.90
52513;DHT22;38422;53.172;6.974;2022-09-14T05:05:12;15.50;99.90
52513;DHT22;38422;53.172;6.974;2022-09-14T05:07:37;15.50;99.90
52513;DHT22;38422;53.172;6.974;2022-09-14T05:10:03;15.50;99.90
52513;DHT22;38422;53.172;6.974;2022-09-14T05:12:29;15.60;99.90
52513;DHT22;38422;53.172;6.974;2022-09-14T05:14:55;15.60;99.90
52513;DHT22;38422;53.172;6.974;2022-09-14T05:17:21;15.60;99.90
52513;DHT22;38422;53.172;6.974;2022-09-14T05:19:47;15.60;99.90
52513;DHT22;38422;53.172;6.974;2022-09-14T05:22:12;15.60;99.90
52513;DHT22;38422;53.172;6.974;2022-09-14T05:24:39;15.60;99.90
52513;DHT22;38422;53.172;6.974;2022-09-14T05:27:05;15.60;99.90
52513;DHT22;38422;53.172;6.974;2022-09-14T05:29:31;15.60;99.90
52513;DHT22;38422;53.172;6.974;2022-09-14T05:31:56;15.60;99.90
52513;DHT22;38422;53.172;6.974;2022-09-14T05:34:22;15.60;99.90
52513;DHT22;38422;53.172;6.974;2022-09-14T05:36:48;15.60;99.90
52513;DHT22;38422;53.172;6.974;2022-09-14T05:39:14;15.60;99.90
52513;DHT22;38422;53.172;6.974;2022-09-14T05:41:39;15.60;99.90
52513;DHT22;38422;53.172;6.974;2022-09-14T05:44:05;15.60;99.90
52513;DHT22;38422;53.172;6.974;2022-09-14T05:46:32;15.60;99.90
52513;DHT22;38422;53.172;6.974;2022-09-14T05:48:58;15.70;99.90
52513;DHT22;38422;53.172;6.974;2022-09-14T05:51:25;15.60;99.90
52513;DHT22;38422;53.172;6.974;2022-09-14T05:53:53;15.70;99.90
52513;DHT22;38422;53.172;6.974;2022-09-14T05:56:20;15.70;99.90
52513;DHT22;38422;53.172;6.974;2022-09-14T05:58:47;15.70;99.90
52513;DHT22;38422;53.172;6.974;2022-09-14T06:03:42;15.80;99.90
52513;DHT22;38422;53.172;6.974;2022-09-14T06:06:09;15.80;99.90
52513;DHT22;38422;53.172;6.974;2022-09-14T06:08:35;15.80;99.90
52513;DHT22;38422;53.172;6.974;2022-09-14T06:11:28;15.80;99.90
52513;DHT22;38422;53.172;6.974;2022-09-14T06:13:55;15.80;99.90
52513;DHT22;38422;53.172;6.974;2022-09-14T06:16:23;15.70;99.90
52513;DHT22;38422;53.172;6.974;2022-09-14T06:18:49;15.70;99.90
52513;DHT22;38422;53.172;6.974;2022-09-14T06:21:17;15.70;99.90
52513;DHT22;38422;53.172;6.974;2022-09-14T06:23:44;15.70;99.90
52513;DHT22;38422;53.172;6.974;2022-09-14T06:26:10;15.70;99.90
52513;DHT22;38422;53.172;6.974;2022-09-14T06:28:37;15.70;99.90
52513;DHT22;38422;53.172;6.974;2022-09-14T06:31:03;15.80;99.90
52513;DHT22;38422;53.172;6.974;2022-09-14T06:33:32;15.80;99.90
52513;DHT22;38422;53.172;6.974;2022-09-14T06:35:59;15.80;99.90
52513;DHT22;38422;53.172;6.974;2022-09-14T06:38:26;15.90;99.90
52513;DHT22;38422;53.172;6.974;2022-09-14T06:40:59;16.00;99.90
52513;DHT22;38422;53.172;6.974;2022-09-14T06:43:27;16.10;99.90
52513;DHT22;38422;53.172;6.974;2022-09-14T06:48:21;16.20;99.90
52513;DHT22;38422;53.172;6.974;2022-09-14T06:50:46;16.20;99.90
52513;DHT22;38422;53.172;6.974;2022-09-14T06:53:12;16.30;99.90
52513;DHT22;38422;53.172;6.974;2022-09-14T06:55:38;16.30;99.90
52513;DHT22;38422;53.172;6.974;2022-09-14T06:58:03;16.40;99.90
52513;DHT22;38422;53.172;6.974;2022-09-14T07:00:29;16.40;99.90
52513;DHT22;38422;53.172;6.974;2022-09-14T07:02:54;16.50;99.90
52513;DHT22;38422;53.172;6.974;2022-09-14T07:05:20;16.60;99.90
52513;DHT22;38422;53.172;6.974;2022-09-14T07:07:50;16.60;99.90
52513;DHT22;38422;53.172;6.974;2022-09-14T07:10:16;16.70;99.90
52513;DHT22;38422;53.172;6.974;2022-09-14T07:12:42;16.70;99.90
52513;DHT22;38422;53.172;6.974;2022-09-14T07:15:08;16.80;99.90
52513;DHT22;38422;53.172;6.974;2022-09-14T07:17:34;16.80;99.90
52513;DHT22;38422;53.172;6.974;2022-09-14T07:20:05;16.90;99.90
52513;DHT22;38422;53.172;6.974;2022-09-14T07:22:32;16.90;99.90
52513;DHT22;38422;53.172;6.974;2022-09-14T07:24:58;16.90;99.90
52513;DHT22;38422;53.172;6.974;2022-09-14T07:27:24;17.00;99.90
52513;DHT22;38422;53.172;6.974;2022-09-14T07:29:50;17.10;99.90
52513;DHT22;38422;53.172;6.974;2022-09-14T07:32:16;17.10;99.90
52513;DHT22;38422;53.172;6.974;2022-09-14T07:34:42;17.10;99.90
52513;DHT22;38422;53.172;6.974;2022-09-14T07:37:08;17.20;99.90
52513;DHT22;38422;53.172;6.974;2022-09-14T07:39:35;17.20;99.90
52513;DHT22;38422;53.172;6.974;2022-09-14T07:42:01;17.30;99.90
52513;DHT22;38422;53.172;6.974;2022-09-14T07:44:27;17.30;99.90
52513;DHT22;38422;53.172;6.974;2022-09-14T07:46:52;17.40;99.90
52513;DHT22;38422;53.172;6.974;2022-09-14T07:49:18;17.40;99.90
52513;DHT22;38422;53.172;6.974;2022-09-14T07:51:44;17.60;99.90
52513;DHT22;38422;53.172;6.974;2022-09-14T07:54:12;17.60;99.90
52513;DHT22;38422;53.172;6.974;2022-09-14T07:56:38;17.70;99.90
52513;DHT22;38422;53.172;6.974;2022-09-14T07:59:05;17.70;99.90
52513;DHT22;38422;53.172;6.974;2022-09-14T08:01:30;17.80;99.90
52513;DHT22;38422;53.172;6.974;2022-09-14T08:04:00;17.80;99.90
52513;DHT22;38422;53.172;6.974;2022-09-14T08:06:27;17.80;99.90
52513;DHT22;38422;53.172;6.974;2022-09-14T08:08:54;17.80;99.90
52513;DHT22;38422;53.172;6.974;2022-09-14T08:11:28;17.90;99.90
52513;DHT22;38422;53.172;6.974;2022-09-14T08:13:59;18.00;99.90
52513;DHT22;38422;53.172;6.974;2022-09-14T08:16:28;18.10;99.90
52513;DHT22;38422;53.172;6.974;2022-09-14T08:18:56;18.20;99.90
52513;DHT22;38422;53.172;6.974;2022-09-14T08:21:22;18.20;99.90
52513;DHT22;38422;53.172;6.974;2022-09-14T08:23:48;18.20;99.90
52513;DHT22;38422;53.172;6.974;2022-09-14T08:26:17;18.30;99.90
52513;DHT22;38422;53.172;6.974;2022-09-14T08:28:43;18.30;99.90
52513;DHT22;38422;53.172;6.974;2022-09-14T08:31:12;18.40;99.90
52513;DHT22;38422;53.172;6.974;2022-09-14T08:33:40;18.40;99.90
52513;DHT22;38422;53.172;6.974;2022-09-14T08:36:07;18.40;99.90
52513;DHT22;38422;53.172;6.974;2022-09-14T08:38:34;18.50;99.90
52513;DHT22;38422;53.172;6.974;2022-09-14T08:41:09;18.50;99.90
52513;DHT22;38422;53.172;6.974;2022-09-14T08:43:37;18.60;99.90
52513;DHT22;38422;53.172;6.974;2022-09-14T08:46:05;18.80;99.90
52513;DHT22;38422;53.172;6.974;2022-09-14T08:48:43;18.80;99.90
52513;DHT22;38422;53.172;6.974;2022-09-14T08:51:10;18.80;99.90
52513;DHT22;38422;53.172;6.974;2022-09-14T08:57:21;18.90;99.90
52513;DHT22;38422;53.172;6.974;2022-09-14T09:00:04;18.90;99.90
52513;DHT22;38422;53.172;6.974;2022-09-14T09:10:31;19.10;99.90
52513;DHT22;38422;53.172;6.974;2022-09-14T09:12:59;19.10;99.90
52513;DHT22;38422;53.172;6.974;2022-09-14T09:15:43;19.20;99.90
52513;DHT22;38422;53.172;6.974;2022-09-14T09:18:27;19.20;99.90
52513;DHT22;38422;53.172;6.974;2022-09-14T09:21:02;19.30;99.90
52513;DHT22;38422;53.172;6.974;2022-09-14T09:23:31;19.30;99.90
52513;DHT22;38422;53.172;6.974;2022-09-14T09:28:27;19.60;99.90
52513;DHT22;38422;53.172;6.974;2022-09-14T09:30:56;19.80;99.90
52513;DHT22;38422;53.172;6.974;2022-09-14T09:33:24;20.00;99.90
52513;DHT22;38422;53.172;6.974;2022-09-14T09:35:52;20.40;99.90
52513;DHT22;38422;53.172;6.974;2022-09-14T09:38:21;20.80;99.50
52513;DHT22;38422;53.172;6.974;2022-09-14T09:41:16;21.00;98.30
52513;DHT22;38422;53.172;6.974;2022-09-14T09:46:28;21.20;96.90
52513;DHT22;38422;53.172;6.974;2022-09-14T09:48:55;21.20;97.20
52513;DHT22;38422;53.172;6.974;2022-09-14T09:56:35;21.30;96.90
52513;DHT22;38422;53.172;6.974;2022-09-14T09:59:02;21.40;96.50
52513;DHT22;38422;53.172;6.974;2022-09-14T10:01:33;21.60;95.70
52513;DHT22;38422;53.172;6.974;2022-09-14T10:04:26;21.70;95.20
52513;DHT22;38422;53.172;6.974;2022-09-14T10:06:55;21.70;94.30
52513;DHT22;38422;53.172;6.974;2022-09-14T10:09:22;21.80;94.80
52513;DHT22;38422;53.172;6.974;2022-09-14T10:12:00;21.70;92.30
52513;DHT22;38422;53.172;6.974;2022-09-14T10:16:52;21.60;93.00
52513;DHT22;38422;53.172;6.974;2022-09-14T10:19:22;21.60;94.40
52513;DHT22;38422;53.172;6.974;2022-09-14T10:24:37;21.60;93.50
52513;DHT22;38422;53.172;6.974;2022-09-14T10:30:17;21.60;93.20
52513;DHT22;38422;53.172;6.974;2022-09-14T10:35:22;21.50;93.00
52513;DHT22;38422;53.172;6.974;2022-09-14T10:40:40;21.40;93.10
52513;DHT22;38422;53.172;6.974;2022-09-14T10:43:20;21.40;93.00
52513;DHT22;38422;53.172;6.974;2022-09-14T10:45:53;21.40;93.40
52513;DHT22;38422;53.172;6.974;2022-09-14T10:48:40;21.40;92.80
52513;DHT22;38422;53.172;6.974;2022-09-14T10:51:24;21.40;93.20
52513;DHT22;38422;53.172;6.974;2022-09-14T10:59:13;21.30;93.10
52513;DHT22;38422;53.172;6.974;2022-09-14T11:07:43;21.40;93.20
52513;DHT22;38422;53.172;6.974;2022-09-14T11:10:21;21.30;93.60
52513;DHT22;38422;53.172;6.974;2022-09-14T11:15:59;21.20;93.40
52513;DHT22;38422;53.172;6.974;2022-09-14T11:18:49;21.20;93.40
52513;DHT22;38422;53.172;6.974;2022-09-14T11:23:53;21.20;93.40
52513;DHT22;38422;53.172;6.974;2022-09-14T11:26:37;21.10;93.30
52513;DHT22;38422;53.172;6.974;2022-09-14T11:32:36;21.10;93.20
52513;DHT22;38422;53.172;6.974;2022-09-14T11:35:37;21.10;93.30
52513;DHT22;38422;53.172;6.974;2022-09-14T11:38:18;21.30;93.20
52513;DHT22;38422;53.172;6.974;2022-09-14T11:41:01;21.60;93.30
52513;DHT22;38422;53.172;6.974;2022-09-14T11:43:46;22.10;92.90
52513;DHT22;38422;53.172;6.974;2022-09-14T11:46:17;22.60;92.80
52513;DHT22;38422;53.172;6.974;2022-09-14T11:49:03;23.00;92.40
52513;DHT22;38422;53.172;6.974;2022-09-14T11:51:50;23.20;91.90
52513;DHT22;38422;53.172;6.974;2022-09-14T11:54:19;23.30;91.40
52513;DHT22;38422;53.172;6.974;2022-09-14T11:56:50;23.20;91.50
52513;DHT22;38422;53.172;6.974;2022-09-14T12:17:37;24.60;89.00
52513;DHT22;38422;53.172;6.974;2022-09-14T12:23:41;25.40;86.40
52513;DHT22;38422;53.172;6.974;2022-09-14T12:26:12;25.70;85.50
52513;DHT22;38422;53.172;6.974;2022-09-14T12:31:29;25.90;84.40
52513;DHT22;38422;53.172;6.974;2022-09-14T12:34:19;25.70;82.10
52513;DHT22;38422;53.172;6.974;2022-09-14T12:39:20;25.10;82.90
52513;DHT22;38422;53.172;6.974;2022-09-14T12:44:42;24.70;84.00
52513;DHT22;38422;53.172;6.974;2022-09-14T12:49:55;24.50;83.20
52513;DHT22;38422;53.172;6.974;2022-09-14T12:55:12;24.80;83.00
52513;DHT22;38422;53.172;6.974;2022-09-14T12:57:48;24.80;82.70
52513;DHT22;38422;53.172;6.974;2022-09-14T13:00:18;24.60;83.00
52513;DHT22;38422;53.172;6.974;2022-09-14T13:03:03;24.40;82.70
52513;DHT22;38422;53.172;6.974;2022-09-14T13:05:33;24.30;83.00
52513;DHT22;38422;53.172;6.974;2022-09-14T13:08:07;24.10;83.20
52513;DHT22;38422;53.172;6.974;2022-09-14T13:10:37;24.00;82.90
52513;DHT22;38422;53.172;6.974;2022-09-14T13:13:15;23.90;83.50
52513;DHT22;38422;53.172;6.974;2022-09-14T13:15:51;23.90;83.40
52513;DHT22;38422;53.172;6.974;2022-09-14T13:20:50;23.90;82.90
52513;DHT22;38422;53.172;6.974;2022-09-14T13:23:21;23.90;83.00
52513;DHT22;38422;53.172;6.974;2022-09-14T13:25:48;23.80;83.40
52513;DHT22;38422;53.172;6.974;2022-09-14T13:28:15;23.70;83.50
52513;DHT22;38422;53.172;6.974;2022-09-14T13:30:42;23.50;83.40
52513;DHT22;38422;53.172;6.974;2022-09-14T13:33:17;23.50;84.10
52513;DHT22;38422;53.172;6.974;2022-09-14T13:35:55;23.30;83.90
52513;DHT22;38422;53.172;6.974;2022-09-14T13:38:24;23.20;83.70
52513;DHT22;38422;53.172;6.974;2022-09-14T13:40:52;23.00;83.60
52513;DHT22;38422;53.172;6.974;2022-09-14T13:43:20;22.90;84.10
52513;DHT22;38422;53.172;6.974;2022-09-14T13:45:48;22.80;84.10
52513;DHT22;38422;53.172;6.974;2022-09-14T13:48:15;22.70;84.20
52513;DHT22;38422;53.172;6.974;2022-09-14T13:50:45;22.60;84.20
52513;DHT22;38422;53.172;6.974;2022-09-14T13:53:46;22.50;84.20
52513;DHT22;38422;53.172;6.974;2022-09-14T13:56:25;22.40;84.40
52513;DHT22;38422;53.172;6.974;2022-09-14T13:59:12;22.40;84.60
52513;DHT22;38422;53.172;6.974;2022-09-14T14:01:40;22.40;84.20
52513;DHT22;38422;53.172;6.974;2022-09-14T14:04:23;22.40;84.70
52513;DHT22;38422;53.172;6.974;2022-09-14T14:07:25;22.40;85.00
52513;DHT22;38422;53.172;6.974;2022-09-14T14:09:55;22.40;85.80
52513;DHT22;38422;53.172;6.974;2022-09-14T14:12:24;22.50;85.30
52513;DHT22;38422;53.172;6.974;2022-09-14T14:17:33;22.70;85.20
52513;DHT22;38422;53.172;6.974;2022-09-14T14:22:57;22.90;84.70
52513;DHT22;38422;53.172;6.974;2022-09-14T14:28:01;23.00;84.60
52513;DHT22;38422;53.172;6.974;2022-09-14T14:30:28;23.10;84.70
52513;DHT22;38422;53.172;6.974;2022-09-14T14:32:55;23.30;85.10
52513;DHT22;38422;53.172;6.974;2022-09-14T14:35:25;23.30;83.80
52513;DHT22;38422;53.172;6.974;2022-09-14T14:37:51;23.30;83.70
52513;DHT22;38422;53.172;6.974;2022-09-14T14:40:18;23.20;83.60
52513;DHT22;38422;53.172;6.974;2022-09-14T14:42:44;23.20;83.80
52513;DHT22;38422;53.172;6.974;2022-09-14T14:45:15;23.10;83.00
52513;DHT22;38422;53.172;6.974;2022-09-14T14:47:44;23.10;84.00
52513;DHT22;38422;53.172;6.974;2022-09-14T14:50:29;23.20;84.20
52513;DHT22;38422;53.172;6.974;2022-09-14T14:52:55;23.40;83.40
52513;DHT22;38422;53.172;6.974;2022-09-14T14:55:22;23.50;83.90
52513;DHT22;38422;53.172;6.974;2022-09-14T14:57:48;23.60;83.20
52513;DHT22;38422;53.172;6.974;2022-09-14T15:00:22;23.60;83.20
52513;DHT22;38422;53.172;6.974;2022-09-14T15:02:49;23.60;83.10
52513;DHT22;38422;53.172;6.974;2022-09-14T15:05:15;23.60;83.00
52513;DHT22;38422;53.172;6.974;2022-09-14T15:07:41;23.60;82.90
52513;DHT22;38422;53.172;6.974;2022-09-14T15:10:09;23.60;82.90
52513;DHT22;38422;53.172;6.974;2022-09-14T15:12:35;23.50;82.60
52513;DHT22;38422;53.172;6.974;2022-09-14T15:15:01;23.50;82.30
52513;DHT22;38422;53.172;6.974;2022-09-14T15:17:27;23.50;82.50
52513;DHT22;38422;53.172;6.974;2022-09-14T15:19:52;23.60;82.70
52513;DHT22;38422;53.172;6.974;2022-09-14T15:22:18;23.70;82.40
52513;DHT22;38422;53.172;6.974;2022-09-14T15:24:44;23.70;81.90
52513;DHT22;38422;53.172;6.974;2022-09-14T15:27:09;23.70;81.90
52513;DHT22;38422;53.172;6.974;2022-09-14T15:29:35;23.70;82.20
52513;DHT22;38422;53.172;6.974;2022-09-14T15:32:01;23.70;81.50
52513;DHT22;38422;53.172;6.974;2022-09-14T15:34:27;23.70;81.50
52513;DHT22;38422;53.172;6.974;2022-09-14T15:36:53;23.70;81.50
52513;DHT22;38422;53.172;6.974;2022-09-14T15:39:21;23.60;81.40
52513;DHT22;38422;53.172;6.974;2022-09-14T15:41:47;23.40;81.40
52513;DHT22;38422;53.172;6.974;2022-09-14T15:44:14;23.20;81.70
52513;DHT22;38422;53.172;6.974;2022-09-14T15:46:40;23.10;82.20
52513;DHT22;38422;53.172;6.974;2022-09-14T15:49:11;23.00;82.30
52513;DHT22;38422;53.172;6.974;2022-09-14T15:51:37;23.00;82.60
52513;DHT22;38422;53.172;6.974;2022-09-14T15:54:06;22.90;82.30
52513;DHT22;38422;53.172;6.974;2022-09-14T15:56:31;22.80;82.20
52513;DHT22;38422;53.172;6.974;2022-09-14T15:58:59;22.70;82.30
52513;DHT22;38422;53.172;6.974;2022-09-14T16:01:26;22.60;82.70
52513;DHT22;38422;53.172;6.974;2022-09-14T16:04:05;22.40;82.70
52513;DHT22;38422;53.172;6.974;2022-09-14T16:06:31;22.40;83.30
52513;DHT22;38422;53.172;6.974;2022-09-14T16:09:00;22.30;83.10
52513;DHT22;38422;53.172;6.974;2022-09-14T16:11:26;22.20;83.20
52513;DHT22;38422;53.172;6.974;2022-09-14T16:13:52;22.10;83.50
52513;DHT22;38422;53.172;6.974;2022-09-14T16:16:19;22.10;83.70
52513;DHT22;38422;53.172;6.974;2022-09-14T16:18:45;22.00;84.00
52513;DHT22;38422;53.172;6.974;2022-09-14T16:21:25;22.00;85.00
52513;DHT22;38422;53.172;6.974;2022-09-14T16:23:57;21.90;85.10
52513;DHT22;38422;53.172;6.974;2022-09-14T16:26:29;21.90;84.90
52513;DHT22;38422;53.172;6.974;2022-09-14T16:28:57;21.90;85.30
52513;DHT22;38422;53.172;6.974;2022-09-14T16:31:28;21.90;85.00
52513;DHT22;38422;53.172;6.974;2022-09-14T16:33:59;21.90;85.30
52513;DHT22;38422;53.172;6.974;2022-09-14T16:36:27;21.80;85.10
52513;DHT22;38422;53.172;6.974;2022-09-14T16:38:58;21.80;85.40
52513;DHT22;38422;53.172;6.974;2022-09-14T16:41:25;21.70;85.80
52513;DHT22;38422;53.172;6.974;2022-09-14T16:43:55;21.60;85.50
52513;DHT22;38422;53.172;6.974;2022-09-14T16:46:21;21.60;85.80
52513;DHT22;38422;53.172;6.974;2022-09-14T16:48:47;21.50;86.10
52513;DHT22;38422;53.172;6.974;2022-09-14T16:51:18;21.50;86.50
52513;DHT22;38422;53.172;6.974;2022-09-14T16:53:45;21.50;86.40
52513;DHT22;38422;53.172;6.974;2022-09-14T16:56:17;21.50;86.50
52513;DHT22;38422;53.172;6.974;2022-09-14T16:58:44;21.40;86.80
52513;DHT22;38422;53.172;6.974;2022-09-14T17:01:16;21.40;86.90
52513;DHT22;38422;53.172;6.974;2022-09-14T17:03:44;21.30;86.60
52513;DHT22;38422;53.172;6.974;2022-09-14T17:06:17;21.20;86.60
52513;DHT22;38422;53.172;6.974;2022-09-14T17:08:44;21.20;86.80
52513;DHT22;38422;53.172;6.974;2022-09-14T17:11:11;21.10;87.10
52513;DHT22;38422;53.172;6.974;2022-09-14T17:13:37;21.10;87.30
52513;DHT22;38422;53.172;6.974;2022-09-14T17:16:08;21.00;87.50
52513;DHT22;38422;53.172;6.974;2022-09-14T17:18:35;21.00;87.40
52513;DHT22;38422;53.172;6.974;2022-09-14T17:21:05;20.90;87.60
52513;DHT22;38422;53.172;6.974;2022-09-14T17:23:31;20.90;87.70
52513;DHT22;38422;53.172;6.974;2022-09-14T17:25:57;20.80;87.70
52513;DHT22;38422;53.172;6.974;2022-09-14T17:28:25;20.80;88.10
52513;DHT22;38422;53.172;6.974;2022-09-14T17:30:52;20.80;88.40
52513;DHT22;38422;53.172;6.974;2022-09-14T17:33:19;20.70;88.50
52513;DHT22;38422;53.172;6.974;2022-09-14T17:35:49;20.60;89.10
52513;DHT22;38422;53.172;6.974;2022-09-14T17:38:16;20.60;89.20
52513;DHT22;38422;53.172;6.974;2022-09-14T17:40:42;20.50;89.10
52513;DHT22;38422;53.172;6.974;2022-09-14T17:43:08;20.50;89.50
52513;DHT22;38422;53.172;6.974;2022-09-14T17:45:35;20.50;89.90
52513;DHT22;38422;53.172;6.974;2022-09-14T17:48:02;20.40;89.80
52513;DHT22;38422;53.172;6.974;2022-09-14T17:50:28;20.40;90.00
52513;DHT22;38422;53.172;6.974;2022-09-14T17:52:54;20.40;90.10
52513;DHT22;38422;53.172;6.974;2022-09-14T17:55:20;20.30;90.20
52513;DHT22;38422;53.172;6.974;2022-09-14T17:57:45;20.30;90.30
52513;DHT22;38422;53.172;6.974;2022-09-14T18:00:11;20.20;90.40
52513;DHT22;38422;53.172;6.974;2022-09-14T18:02:37;20.20;90.50